sensor_id;sensor_type;location;lat;lon;timestamp;P1;durP1;ratioP1;P2;durP2;ratioP2
59273;SDS011;45044;41.572;24.730;2023-09-18T00:01:03;19.35;;;14.10;;
59273;SDS011;45044;41.572;24.730;2023-09-18T00:03:32;20.25;;;15.02;;
59273;SDS011;45044;41.572;24.730;2023-09-18T00:05:58;23.83;;;15.52;;
59273;SDS011;45044;41.572;24.730;2023-09-18T00:08:25;23.98;;;14.73;;
59273;SDS011;45044;41.572;24.730;2023-09-18T00:10:53;20.13;;;14.20;;
59273;SDS011;45044;41.572;24.730;2023-09-18T00:13:21;21.52;;;14.32;;
59273;SDS011;45044;41.572;24.730;2023-09-18T00:15:48;24.80;;;15.15;;
59273;SDS011;45044;41.572;24.730;2023-09-18T00:18:15;21.90;;;14.38;;
59273;SDS011;45044;41.572;24.730;2023-09-18T00:20:43;19.83;;;13.93;;
59273;SDS011;45044;41.572;24.730;2023-09-18T00:23:10;21.30;;;14.20;;
59273;SDS011;45044;41.572;24.730;2023-09-18T00:25:37;20.30;;;14.40;;
59273;SDS011;45044;41.572;24.730;2023-09-18T00:28:04;19.67;;;13.75;;
59273;SDS011;45044;41.572;24.730;2023-09-18T00:30:31;18.98;;;12.82;;
59273;SDS011;45044;41.572;24.730;2023-09-18T00:32:57;17.95;;;12.55;;
59273;SDS011;45044;41.572;24.730;2023-09-18T00:35:24;21.35;;;13.07;;
59273;SDS011;45044;41.572;24.730;2023-09-18T00:37:52;19.48;;;13.23;;
59273;SDS011;45044;41.572;24.730;2023-09-18T00:40:18;21.08;;;13.00;;
59273;SDS011;45044;41.572;24.730;2023-09-18T00:42:45;19.55;;;13.57;;
59273;SDS011;45044;41.572;24.730;2023-09-18T00:45:12;19.60;;;14.32;;
59273;SDS011;45044;41.572;24.730;2023-09-18T00:47:39;19.58;;;13.50;;
59273;SDS011;45044;41.572;24.730;2023-09-18T00:50:06;22.23;;;14.88;;
59273;SDS011;45044;41.572;24.730;2023-09-18T00:52:37;19.15;;;13.90;;
59273;SDS011;45044;41.572;24.730;2023-09-18T00:55:04;20.73;;;13.68;;
59273;SDS011;45044;41.572;24.730;2023-09-18T00:57:32;19.50;;;13.30;;
59273;SDS011;45044;41.572;24.730;2023-09-18T00:59:59;19.40;;;13.20;;
59273;SDS011;45044;41.572;24.730;2023-09-18T01:02:26;19.13;;;13.70;;
59273;SDS011;45044;41.572;24.730;2023-09-18T01:04:54;19.13;;;13.48;;
59273;SDS011;45044;41.572;24.730;2023-09-18T01:07:22;19.23;;;12.65;;
59273;SDS011;45044;41.572;24.730;2023-09-18T01:09:49;17.88;;;12.00;;
59273;SDS011;45044;41.572;24.730;2023-09-18T01:17:36;17.38;;;12.75;;
59273;SDS011;45044;41.572;24.730;2023-09-18T01:20:10;17.52;;;12.90;;
59273;SDS011;45044;41.572;24.730;2023-09-18T01:22:38;21.08;;;13.40;;
59273;SDS011;45044;41.572;24.730;2023-09-18T01:25:05;22.92;;;14.68;;
59273;SDS011;45044;41.572;24.730;2023-09-18T01:27:33;18.45;;;12.98;;
59273;SDS011;45044;41.572;24.730;2023-09-18T01:30:00;20.02;;;13.65;;
59273;SDS011;45044;41.572;24.730;2023-09-18T01:32:28;19.40;;;13.65;;
59273;SDS011;45044;41.572;24.730;2023-09-18T01:34:59;19.45;;;13.20;;
59273;SDS011;45044;41.572;24.730;2023-09-18T01:37:29;19.85;;;13.27;;
59273;SDS011;45044;41.572;24.730;2023-09-18T01:39:57;21.02;;;12.68;;
59273;SDS011;45044;41.572;24.730;2023-09-18T01:42:26;20.60;;;13.05;;
59273;SDS011;45044;41.572;24.730;2023-09-18T01:44:53;19.23;;;13.15;;
59273;SDS011;45044;41.572;24.730;2023-09-18T01:47:21;20.33;;;13.13;;
59273;SDS011;45044;41.572;24.730;2023-09-18T01:49:53;19.15;;;13.48;;
59273;SDS011;45044;41.572;24.730;2023-09-18T01:52:20;19.70;;;14.05;;
59273;SDS011;45044;41.572;24.730;2023-09-18T01:54:48;19.85;;;13.27;;
59273;SDS011;45044;41.572;24.730;2023-09-18T01:57:15;21.00;;;12.57;;
59273;SDS011;45044;41.572;24.730;2023-09-18T01:59:41;22.38;;;13.25;;
59273;SDS011;45044;41.572;24.730;2023-09-18T02:02:09;19.60;;;13.75;;
59273;SDS011;45044;41.572;24.730;2023-09-18T02:04:45;17.85;;;12.82;;
59273;SDS011;45044;41.572;24.730;2023-09-18T02:07:31;17.02;;;12.65;;
59273;SDS011;45044;41.572;24.730;2023-09-18T02:09:58;16.90;;;12.23;;
59273;SDS011;45044;41.572;24.730;2023-09-18T02:12:25;19.42;;;13.10;;
59273;SDS011;45044;41.572;24.730;2023-09-18T02:14:52;20.83;;;13.25;;
59273;SDS011;45044;41.572;24.730;2023-09-18T02:17:18;20.98;;;13.55;;
59273;SDS011;45044;41.572;24.730;2023-09-18T02:19:47;18.60;;;12.68;;
59273;SDS011;45044;41.572;24.730;2023-09-18T02:22:13;16.17;;;11.40;;
59273;SDS011;45044;41.572;24.730;2023-09-18T02:24:40;17.88;;;12.70;;
59273;SDS011;45044;41.572;24.730;2023-09-18T02:27:07;18.65;;;13.10;;
59273;SDS011;45044;41.572;24.730;2023-09-18T02:29:34;17.10;;;12.68;;
59273;SDS011;45044;41.572;24.730;2023-09-18T02:32:00;17.48;;;12.10;;
59273;SDS011;45044;41.572;24.730;2023-09-18T02:34:27;18.85;;;12.95;;
59273;SDS011;45044;41.572;24.730;2023-09-18T02:36:54;18.52;;;12.90;;
59273;SDS011;45044;41.572;24.730;2023-09-18T02:39:21;19.88;;;12.48;;
59273;SDS011;45044;41.572;24.730;2023-09-18T02:41:48;18.67;;;12.18;;
59273;SDS011;45044;41.572;24.730;2023-09-18T02:44:14;19.85;;;12.50;;
59273;SDS011;45044;41.572;24.730;2023-09-18T02:46:42;17.45;;;12.05;;
59273;SDS011;45044;41.572;24.730;2023-09-18T02:49:11;18.88;;;12.43;;
59273;SDS011;45044;41.572;24.730;2023-09-18T02:51:38;17.35;;;12.80;;
59273;SDS011;45044;41.572;24.730;2023-09-18T02:54:05;18.08;;;12.27;;
59273;SDS011;45044;41.572;24.730;2023-09-18T02:56:32;18.35;;;13.02;;
59273;SDS011;45044;41.572;24.730;2023-09-18T02:58:59;19.10;;;12.73;;
59273;SDS011;45044;41.572;24.730;2023-09-18T03:01:26;20.00;;;13.60;;
59273;SDS011;45044;41.572;24.730;2023-09-18T03:03:53;18.23;;;12.98;;
59273;SDS011;45044;41.572;24.730;2023-09-18T03:06:20;17.48;;;12.40;;
59273;SDS011;45044;41.572;24.730;2023-09-18T03:08:48;18.38;;;13.05;;
59273;SDS011;45044;41.572;24.730;2023-09-18T03:11:16;21.05;;;12.88;;
59273;SDS011;45044;41.572;24.730;2023-09-18T03:13:46;19.10;;;12.65;;
59273;SDS011;45044;41.572;24.730;2023-09-18T03:16:13;19.42;;;13.07;;
59273;SDS011;45044;41.572;24.730;2023-09-18T03:18:40;20.42;;;12.32;;
59273;SDS011;45044;41.572;24.730;2023-09-18T03:21:07;20.42;;;13.77;;
59273;SDS011;45044;41.572;24.730;2023-09-18T03:23:34;18.08;;;13.50;;
59273;SDS011;45044;41.572;24.730;2023-09-18T03:26:01;18.45;;;13.07;;
59273;SDS011;45044;41.572;24.730;2023-09-18T03:28:29;16.85;;;12.68;;
59273;SDS011;45044;41.572;24.730;2023-09-18T03:30:56;17.98;;;12.63;;
59273;SDS011;45044;41.572;24.730;2023-09-18T03:33:24;19.13;;;12.68;;
59273;SDS011;45044;41.572;24.730;2023-09-18T03:35:51;18.05;;;13.05;;
59273;SDS011;45044;41.572;24.730;2023-09-18T03:38:21;19.63;;;12.88;;
59273;SDS011;45044;41.572;24.730;2023-09-18T03:40:49;20.05;;;14.18;;
59273;SDS011;45044;41.572;24.730;2023-09-18T03:43:16;19.02;;;13.23;;
59273;SDS011;45044;41.572;24.730;2023-09-18T03:45:43;19.60;;;13.25;;
59273;SDS011;45044;41.572;24.730;2023-09-18T03:48:10;19.85;;;12.95;;
59273;SDS011;45044;41.572;24.730;2023-09-18T03:50:38;19.70;;;13.73;;
59273;SDS011;45044;41.572;24.730;2023-09-18T03:53:06;19.92;;;12.85;;
59273;SDS011;45044;41.572;24.730;2023-09-18T03:55:33;20.27;;;13.50;;
59273;SDS011;45044;41.572;24.730;2023-09-18T03:58:00;18.75;;;13.18;;
59273;SDS011;45044;41.572;24.730;2023-09-18T04:00:27;18.38;;;13.50;;
59273;SDS011;45044;41.572;24.730;2023-09-18T04:02:54;21.52;;;14.32;;
59273;SDS011;45044;41.572;24.730;2023-09-18T04:05:21;19.95;;;13.23;;
59273;SDS011;45044;41.572;24.730;2023-09-18T04:07:48;19.50;;;12.95;;
59273;SDS011;45044;41.572;24.730;2023-09-18T04:10:15;19.38;;;12.73;;
59273;SDS011;45044;41.572;24.730;2023-09-18T04:12:46;20.42;;;14.70;;
59273;SDS011;45044;41.572;24.730;2023-09-18T04:15:14;20.30;;;13.35;;
59273;SDS011;45044;41.572;24.730;2023-09-18T04:17:41;17.98;;;12.52;;
59273;SDS011;45044;41.572;24.730;2023-09-18T04:20:08;18.13;;;11.77;;
59273;SDS011;45044;41.572;24.730;2023-09-18T04:22:35;18.65;;;13.18;;
59273;SDS011;45044;41.572;24.730;2023-09-18T04:25:02;19.92;;;12.65;;
59273;SDS011;45044;41.572;24.730;2023-09-18T04:27:31;20.63;;;12.95;;
59273;SDS011;45044;41.572;24.730;2023-09-18T04:29:58;21.13;;;13.77;;
59273;SDS011;45044;41.572;24.730;2023-09-18T04:32:27;20.17;;;13.27;;
59273;SDS011;45044;41.572;24.730;2023-09-18T04:34:56;16.85;;;11.95;;
59273;SDS011;45044;41.572;24.730;2023-09-18T04:37:22;18.75;;;13.48;;
59273;SDS011;45044;41.572;24.730;2023-09-18T04:39:49;20.23;;;13.80;;
59273;SDS011;45044;41.572;24.730;2023-09-18T04:42:16;19.77;;;13.32;;
59273;SDS011;45044;41.572;24.730;2023-09-18T04:44:43;20.25;;;13.18;;
59273;SDS011;45044;41.572;24.730;2023-09-18T04:47:10;17.05;;;12.60;;
59273;SDS011;45044;41.572;24.730;2023-09-18T04:49:37;19.85;;;13.25;;
59273;SDS011;45044;41.572;24.730;2023-09-18T04:52:04;22.27;;;14.80;;
59273;SDS011;45044;41.572;24.730;2023-09-18T04:54:31;24.90;;;16.88;;
59273;SDS011;45044;41.572;24.730;2023-09-18T04:56:58;22.80;;;15.75;;
59273;SDS011;45044;41.572;24.730;2023-09-18T04:59:25;21.05;;;13.73;;
59273;SDS011;45044;41.572;24.730;2023-09-18T05:01:52;18.45;;;13.50;;
59273;SDS011;45044;41.572;24.730;2023-09-18T05:04:18;19.45;;;13.27;;
59273;SDS011;45044;41.572;24.730;2023-09-18T05:06:46;19.05;;;11.98;;
59273;SDS011;45044;41.572;24.730;2023-09-18T05:09:13;16.27;;;11.70;;
59273;SDS011;45044;41.572;24.730;2023-09-18T05:11:41;17.88;;;12.13;;
59273;SDS011;45044;41.572;24.730;2023-09-18T05:14:09;19.13;;;12.18;;
59273;SDS011;45044;41.572;24.730;2023-09-18T05:16:36;17.55;;;11.95;;
59273;SDS011;45044;41.572;24.730;2023-09-18T05:19:03;17.90;;;11.55;;
59273;SDS011;45044;41.572;24.730;2023-09-18T05:21:30;14.82;;;10.35;;
59273;SDS011;45044;41.572;24.730;2023-09-18T05:23:57;15.63;;;11.20;;
59273;SDS011;45044;41.572;24.730;2023-09-18T05:26:23;15.73;;;10.30;;
59273;SDS011;45044;41.572;24.730;2023-09-18T05:28:51;13.05;;;9.50;;
59273;SDS011;45044;41.572;24.730;2023-09-18T05:31:18;15.05;;;10.43;;
59273;SDS011;45044;41.572;24.730;2023-09-18T05:33:45;15.82;;;9.85;;
59273;SDS011;45044;41.572;24.730;2023-09-18T05:36:13;15.18;;;9.75;;
59273;SDS011;45044;41.572;24.730;2023-09-18T05:38:41;14.77;;;10.52;;
59273;SDS011;45044;41.572;24.730;2023-09-18T05:41:09;18.58;;;12.38;;
59273;SDS011;45044;41.572;24.730;2023-09-18T05:43:36;16.90;;;11.07;;
59273;SDS011;45044;41.572;24.730;2023-09-18T05:46:03;14.95;;;10.68;;
59273;SDS011;45044;41.572;24.730;2023-09-18T05:48:30;14.18;;;10.05;;
59273;SDS011;45044;41.572;24.730;2023-09-18T05:50:57;16.55;;;9.68;;
59273;SDS011;45044;41.572;24.730;2023-09-18T05:53:24;16.50;;;10.20;;
59273;SDS011;45044;41.572;24.730;2023-09-18T05:55:51;14.18;;;9.38;;
59273;SDS011;45044;41.572;24.730;2023-09-18T05:58:18;14.27;;;7.88;;
59273;SDS011;45044;41.572;24.730;2023-09-18T06:00:50;11.20;;;7.65;;
59273;SDS011;45044;41.572;24.730;2023-09-18T06:03:17;9.85;;;6.05;;
59273;SDS011;45044;41.572;24.730;2023-09-18T06:05:46;9.70;;;5.88;;
59273;SDS011;45044;41.572;24.730;2023-09-18T06:08:13;7.95;;;5.30;;
59273;SDS011;45044;41.572;24.730;2023-09-18T06:10:42;9.25;;;5.22;;
59273;SDS011;45044;41.572;24.730;2023-09-18T06:13:09;11.63;;;5.80;;
59273;SDS011;45044;41.572;24.730;2023-09-18T06:15:36;10.77;;;6.07;;
59273;SDS011;45044;41.572;24.730;2023-09-18T06:18:03;10.48;;;6.13;;
59273;SDS011;45044;41.572;24.730;2023-09-18T06:20:30;7.63;;;4.50;;
59273;SDS011;45044;41.572;24.730;2023-09-18T06:22:57;6.32;;;3.85;;
59273;SDS011;45044;41.572;24.730;2023-09-18T06:25:23;8.82;;;5.45;;
59273;SDS011;45044;41.572;24.730;2023-09-18T06:27:50;11.25;;;5.22;;
59273;SDS011;45044;41.572;24.730;2023-09-18T06:30:17;9.18;;;5.50;;
59273;SDS011;45044;41.572;24.730;2023-09-18T06:32:44;9.02;;;5.47;;
59273;SDS011;45044;41.572;24.730;2023-09-18T06:35:11;9.00;;;5.22;;
59273;SDS011;45044;41.572;24.730;2023-09-18T06:37:38;7.13;;;4.20;;
59273;SDS011;45044;41.572;24.730;2023-09-18T06:40:05;5.85;;;3.75;;
59273;SDS011;45044;41.572;24.730;2023-09-18T06:42:32;9.45;;;4.30;;
59273;SDS011;45044;41.572;24.730;2023-09-18T06:44:59;6.30;;;3.83;;
59273;SDS011;45044;41.572;24.730;2023-09-18T06:47:27;6.70;;;3.53;;
59273;SDS011;45044;41.572;24.730;2023-09-18T06:49:55;7.47;;;4.20;;
59273;SDS011;45044;41.572;24.730;2023-09-18T06:52:21;8.73;;;4.28;;
59273;SDS011;45044;41.572;24.730;2023-09-18T06:54:48;7.97;;;3.75;;
59273;SDS011;45044;41.572;24.730;2023-09-18T06:57:15;7.38;;;3.55;;
59273;SDS011;45044;41.572;24.730;2023-09-18T06:59:42;7.45;;;4.10;;
59273;SDS011;45044;41.572;24.730;2023-09-18T07:02:09;6.47;;;3.72;;
59273;SDS011;45044;41.572;24.730;2023-09-18T07:04:36;6.22;;;3.03;;
59273;SDS011;45044;41.572;24.730;2023-09-18T07:07:03;7.18;;;3.70;;
59273;SDS011;45044;41.572;24.730;2023-09-18T07:09:30;7.43;;;4.05;;
59273;SDS011;45044;41.572;24.730;2023-09-18T07:11:57;6.70;;;3.72;;
59273;SDS011;45044;41.572;24.730;2023-09-18T07:14:24;7.15;;;3.65;;
59273;SDS011;45044;41.572;24.730;2023-09-18T07:16:51;5.57;;;3.00;;
59273;SDS011;45044;41.572;24.730;2023-09-18T07:19:18;7.60;;;3.22;;
59273;SDS011;45044;41.572;24.730;2023-09-18T07:21:44;6.65;;;3.53;;
59273;SDS011;45044;41.572;24.730;2023-09-18T07:24:11;7.00;;;4.03;;
59273;SDS011;45044;41.572;24.730;2023-09-18T07:26:47;7.95;;;3.47;;
59273;SDS011;45044;41.572;24.730;2023-09-18T07:29:15;6.78;;;3.40;;
59273;SDS011;45044;41.572;24.730;2023-09-18T07:31:42;8.15;;;3.20;;
59273;SDS011;45044;41.572;24.730;2023-09-18T07:34:10;5.88;;;2.92;;
59273;SDS011;45044;41.572;24.730;2023-09-18T07:36:39;7.68;;;3.80;;
59273;SDS011;45044;41.572;24.730;2023-09-18T07:39:06;4.68;;;3.05;;
59273;SDS011;45044;41.572;24.730;2023-09-18T07:41:33;9.27;;;4.20;;
59273;SDS011;45044;41.572;24.730;2023-09-18T07:44:00;5.05;;;3.10;;
59273;SDS011;45044;41.572;24.730;2023-09-18T07:46:27;6.70;;;3.33;;
59273;SDS011;45044;41.572;24.730;2023-09-18T07:48:54;6.40;;;3.47;;
59273;SDS011;45044;41.572;24.730;2023-09-18T07:51:21;7.53;;;3.80;;
59273;SDS011;45044;41.572;24.730;2023-09-18T07:53:48;5.90;;;3.03;;
59273;SDS011;45044;41.572;24.730;2023-09-18T07:56:17;4.38;;;3.15;;
59273;SDS011;45044;41.572;24.730;2023-09-18T07:58:45;5.35;;;3.03;;
59273;SDS011;45044;41.572;24.730;2023-09-18T08:01:13;6.10;;;2.92;;
59273;SDS011;45044;41.572;24.730;2023-09-18T08:03:42;4.45;;;2.50;;
59273;SDS011;45044;41.572;24.730;2023-09-18T08:06:09;5.75;;;3.40;;
59273;SDS011;45044;41.572;24.730;2023-09-18T08:08:38;6.10;;;2.83;;
59273;SDS011;45044;41.572;24.730;2023-09-18T08:11:09;5.07;;;2.65;;
59273;SDS011;45044;41.572;24.730;2023-09-18T08:13:35;6.07;;;3.33;;
59273;SDS011;45044;41.572;24.730;2023-09-18T08:16:05;4.82;;;2.70;;
59273;SDS011;45044;41.572;24.730;2023-09-18T08:18:33;5.00;;;3.00;;
59273;SDS011;45044;41.572;24.730;2023-09-18T08:21:01;4.38;;;2.83;;
59273;SDS011;45044;41.572;24.730;2023-09-18T08:23:28;5.13;;;2.80;;
59273;SDS011;45044;41.572;24.730;2023-09-18T08:25:55;4.32;;;2.38;;
59273;SDS011;45044;41.572;24.730;2023-09-18T08:28:23;3.88;;;2.60;;
59273;SDS011;45044;41.572;24.730;2023-09-18T08:30:50;4.80;;;2.50;;
59273;SDS011;45044;41.572;24.730;2023-09-18T08:33:17;4.15;;;2.30;;
59273;SDS011;45044;41.572;24.730;2023-09-18T08:35:44;4.20;;;2.30;;
59273;SDS011;45044;41.572;24.730;2023-09-18T08:38:16;3.78;;;2.40;;
59273;SDS011;45044;41.572;24.730;2023-09-18T08:40:43;4.57;;;2.40;;
59273;SDS011;45044;41.572;24.730;2023-09-18T08:43:10;4.60;;;2.88;;
59273;SDS011;45044;41.572;24.730;2023-09-18T08:45:43;3.90;;;2.30;;
59273;SDS011;45044;41.572;24.730;2023-09-18T08:48:14;5.35;;;2.33;;
59273;SDS011;45044;41.572;24.730;2023-09-18T08:50:41;3.90;;;2.50;;
59273;SDS011;45044;41.572;24.730;2023-09-18T08:53:10;4.57;;;2.20;;
59273;SDS011;45044;41.572;24.730;2023-09-18T08:55:37;3.60;;;2.45;;
59273;SDS011;45044;41.572;24.730;2023-09-18T08:58:05;4.50;;;2.80;;
59273;SDS011;45044;41.572;24.730;2023-09-18T09:00:33;3.30;;;2.55;;
59273;SDS011;45044;41.572;24.730;2023-09-18T09:03:02;4.38;;;3.03;;
59273;SDS011;45044;41.572;24.730;2023-09-18T09:05:31;3.50;;;2.40;;
59273;SDS011;45044;41.572;24.730;2023-09-18T09:07:58;6.45;;;3.00;;
59273;SDS011;45044;41.572;24.730;2023-09-18T09:10:26;4.18;;;2.65;;
59273;SDS011;45044;41.572;24.730;2023-09-18T09:12:57;6.05;;;2.60;;
59273;SDS011;45044;41.572;24.730;2023-09-18T09:15:26;3.55;;;2.50;;
59273;SDS011;45044;41.572;24.730;2023-09-18T09:18:05;4.35;;;2.25;;
59273;SDS011;45044;41.572;24.730;2023-09-18T09:20:34;4.63;;;2.72;;
59273;SDS011;45044;41.572;24.730;2023-09-18T09:23:03;6.00;;;2.47;;
59273;SDS011;45044;41.572;24.730;2023-09-18T09:25:31;4.75;;;2.35;;
59273;SDS011;45044;41.572;24.730;2023-09-18T09:28:00;3.95;;;2.45;;
59273;SDS011;45044;41.572;24.730;2023-09-18T09:30:30;2.75;;;1.80;;
59273;SDS011;45044;41.572;24.730;2023-09-18T09:32:58;4.80;;;2.17;;
59273;SDS011;45044;41.572;24.730;2023-09-18T09:35:26;4.70;;;2.38;;
59273;SDS011;45044;41.572;24.730;2023-09-18T09:37:58;3.72;;;2.20;;
59273;SDS011;45044;41.572;24.730;2023-09-18T09:40:35;4.22;;;2.28;;
59273;SDS011;45044;41.572;24.730;2023-09-18T09:43:07;3.40;;;1.98;;
59273;SDS011;45044;41.572;24.730;2023-09-18T09:45:40;4.50;;;2.10;;
59273;SDS011;45044;41.572;24.730;2023-09-18T09:48:07;3.58;;;2.30;;
59273;SDS011;45044;41.572;24.730;2023-09-18T09:50:45;4.43;;;2.63;;
59273;SDS011;45044;41.572;24.730;2023-09-18T09:53:15;4.30;;;2.40;;
59273;SDS011;45044;41.572;24.730;2023-09-18T09:55:42;3.25;;;2.17;;
59273;SDS011;45044;41.572;24.730;2023-09-18T09:58:09;5.55;;;2.33;;
59273;SDS011;45044;41.572;24.730;2023-09-18T10:00:48;3.97;;;2.10;;
59273;SDS011;45044;41.572;24.730;2023-09-18T10:03:21;3.25;;;2.10;;
59273;SDS011;45044;41.572;24.730;2023-09-18T10:05:50;3.95;;;2.53;;
59273;SDS011;45044;41.572;24.730;2023-09-18T10:10:53;3.40;;;2.15;;
59273;SDS011;45044;41.572;24.730;2023-09-18T10:15:52;3.75;;;2.22;;
59273;SDS011;45044;41.572;24.730;2023-09-18T10:18:22;5.75;;;2.53;;
59273;SDS011;45044;41.572;24.730;2023-09-18T10:21:03;4.43;;;2.42;;
59273;SDS011;45044;41.572;24.730;2023-09-18T10:23:46;4.75;;;2.83;;
59273;SDS011;45044;41.572;24.730;2023-09-18T10:26:21;4.00;;;2.97;;
59273;SDS011;45044;41.572;24.730;2023-09-18T10:28:52;5.53;;;2.67;;
59273;SDS011;45044;41.572;24.730;2023-09-18T10:31:22;5.28;;;2.50;;
59273;SDS011;45044;41.572;24.730;2023-09-18T10:33:59;4.43;;;2.78;;
59273;SDS011;45044;41.572;24.730;2023-09-18T10:36:31;4.63;;;2.63;;
59273;SDS011;45044;41.572;24.730;2023-09-18T10:39:00;3.88;;;2.90;;
59273;SDS011;45044;41.572;24.730;2023-09-18T10:41:27;4.97;;;3.03;;
59273;SDS011;45044;41.572;24.730;2023-09-18T10:43:55;4.72;;;2.63;;
59273;SDS011;45044;41.572;24.730;2023-09-18T10:46:25;4.40;;;2.70;;
59273;SDS011;45044;41.572;24.730;2023-09-18T10:48:53;4.15;;;2.78;;
59273;SDS011;45044;41.572;24.730;2023-09-18T10:51:22;8.13;;;4.03;;
59273;SDS011;45044;41.572;24.730;2023-09-18T10:53:50;5.43;;;2.92;;
59273;SDS011;45044;41.572;24.730;2023-09-18T10:56:22;7.28;;;3.20;;
59273;SDS011;45044;41.572;24.730;2023-09-18T10:58:58;3.97;;;2.67;;
59273;SDS011;45044;41.572;24.730;2023-09-18T11:01:29;4.00;;;2.65;;
59273;SDS011;45044;41.572;24.730;2023-09-18T11:03:57;3.67;;;2.42;;
59273;SDS011;45044;41.572;24.730;2023-09-18T11:06:26;5.10;;;2.70;;
59273;SDS011;45044;41.572;24.730;2023-09-18T11:09:00;3.28;;;2.50;;
59273;SDS011;45044;41.572;24.730;2023-09-18T11:11:31;3.85;;;2.90;;
59273;SDS011;45044;41.572;24.730;2023-09-18T11:14:02;4.53;;;2.88;;
59273;SDS011;45044;41.572;24.730;2023-09-18T11:16:34;4.88;;;2.85;;
59273;SDS011;45044;41.572;24.730;2023-09-18T11:19:07;4.03;;;2.40;;
59273;SDS011;45044;41.572;24.730;2023-09-18T11:21:37;3.97;;;2.40;;
59273;SDS011;45044;41.572;24.730;2023-09-18T11:24:08;3.13;;;2.33;;
59273;SDS011;45044;41.572;24.730;2023-09-18T11:26:44;3.25;;;2.10;;
59273;SDS011;45044;41.572;24.730;2023-09-18T11:29:16;3.80;;;2.40;;
59273;SDS011;45044;41.572;24.730;2023-09-18T11:31:52;4.07;;;2.47;;
59273;SDS011;45044;41.572;24.730;2023-09-18T11:34:32;4.18;;;2.25;;
59273;SDS011;45044;41.572;24.730;2023-09-18T11:37:03;3.28;;;2.20;;
59273;SDS011;45044;41.572;24.730;2023-09-18T11:39:48;3.80;;;2.33;;
59273;SDS011;45044;41.572;24.730;2023-09-18T11:42:19;2.97;;;2.67;;
59273;SDS011;45044;41.572;24.730;2023-09-18T11:44:52;3.00;;;1.88;;
59273;SDS011;45044;41.572;24.730;2023-09-18T11:47:24;3.88;;;2.08;;
59273;SDS011;45044;41.572;24.730;2023-09-18T11:49:55;3.70;;;2.10;;
59273;SDS011;45044;41.572;24.730;2023-09-18T11:55:02;2.92;;;2.00;;
59273;SDS011;45044;41.572;24.730;2023-09-18T11:57:30;3.42;;;1.98;;
59273;SDS011;45044;41.572;24.730;2023-09-18T12:00:02;3.45;;;2.08;;
59273;SDS011;45044;41.572;24.730;2023-09-18T12:02:38;3.25;;;2.08;;
59273;SDS011;45044;41.572;24.730;2023-09-18T12:05:11;3.13;;;2.10;;
59273;SDS011;45044;41.572;24.730;2023-09-18T12:07:42;3.22;;;1.73;;
59273;SDS011;45044;41.572;24.730;2023-09-18T12:10:15;3.70;;;2.20;;
59273;SDS011;45044;41.572;24.730;2023-09-18T12:12:45;3.63;;;1.88;;
59273;SDS011;45044;41.572;24.730;2023-09-18T12:15:13;3.50;;;1.80;;
59273;SDS011;45044;41.572;24.730;2023-09-18T12:17:43;3.55;;;1.90;;
59273;SDS011;45044;41.572;24.730;2023-09-18T12:20:16;3.10;;;1.85;;
59273;SDS011;45044;41.572;24.730;2023-09-18T12:22:47;3.95;;;2.00;;
59273;SDS011;45044;41.572;24.730;2023-09-18T12:25:15;3.20;;;1.98;;
59273;SDS011;45044;41.572;24.730;2023-09-18T12:27:43;4.55;;;2.08;;
59273;SDS011;45044;41.572;24.730;2023-09-18T12:30:11;3.63;;;1.83;;
59273;SDS011;45044;41.572;24.730;2023-09-18T12:32:41;3.28;;;2.00;;
59273;SDS011;45044;41.572;24.730;2023-09-18T12:35:08;3.50;;;1.95;;
59273;SDS011;45044;41.572;24.730;2023-09-18T12:37:39;3.65;;;1.90;;
59273;SDS011;45044;41.572;24.730;2023-09-18T12:40:07;3.70;;;2.15;;
59273;SDS011;45044;41.572;24.730;2023-09-18T12:42:53;3.97;;;2.25;;
59273;SDS011;45044;41.572;24.730;2023-09-18T12:45:22;4.32;;;2.00;;
59273;SDS011;45044;41.572;24.730;2023-09-18T12:47:51;4.13;;;1.90;;
59273;SDS011;45044;41.572;24.730;2023-09-18T12:50:18;3.75;;;2.03;;
59273;SDS011;45044;41.572;24.730;2023-09-18T12:52:45;2.65;;;1.48;;
59273;SDS011;45044;41.572;24.730;2023-09-18T12:55:25;2.28;;;1.70;;
59273;SDS011;45044;41.572;24.730;2023-09-18T12:57:53;3.83;;;2.00;;
59273;SDS011;45044;41.572;24.730;2023-09-18T13:00:22;2.55;;;1.58;;
59273;SDS011;45044;41.572;24.730;2023-09-18T13:02:49;3.00;;;1.73;;
59273;SDS011;45044;41.572;24.730;2023-09-18T13:05:23;2.97;;;1.63;;
59273;SDS011;45044;41.572;24.730;2023-09-18T13:07:53;3.45;;;1.80;;
59273;SDS011;45044;41.572;24.730;2023-09-18T13:10:23;3.47;;;1.67;;
59273;SDS011;45044;41.572;24.730;2023-09-18T13:12:54;3.47;;;1.67;;
59273;SDS011;45044;41.572;24.730;2023-09-18T13:17:57;3.30;;;1.50;;
59273;SDS011;45044;41.572;24.730;2023-09-18T13:20:26;3.17;;;1.58;;
59273;SDS011;45044;41.572;24.730;2023-09-18T13:22:56;2.53;;;1.38;;
59273;SDS011;45044;41.572;24.730;2023-09-18T13:25:26;2.53;;;1.30;;
59273;SDS011;45044;41.572;24.730;2023-09-18T13:27:55;2.88;;;1.35;;
59273;SDS011;45044;41.572;24.730;2023-09-18T13:30:22;2.38;;;1.50;;
59273;SDS011;45044;41.572;24.730;2023-09-18T13:32:49;2.72;;;1.70;;
59273;SDS011;45044;41.572;24.730;2023-09-18T13:35:17;2.45;;;1.48;;
59273;SDS011;45044;41.572;24.730;2023-09-18T13:37:46;3.55;;;1.67;;
59273;SDS011;45044;41.572;24.730;2023-09-18T13:40:16;4.00;;;1.33;;
59273;SDS011;45044;41.572;24.730;2023-09-18T13:42:43;3.05;;;1.60;;
59273;SDS011;45044;41.572;24.730;2023-09-18T13:45:09;1.92;;;1.40;;
59273;SDS011;45044;41.572;24.730;2023-09-18T13:47:37;3.33;;;1.48;;
59273;SDS011;45044;41.572;24.730;2023-09-18T13:50:04;2.90;;;1.52;;
59273;SDS011;45044;41.572;24.730;2023-09-18T13:52:32;4.32;;;1.60;;
59273;SDS011;45044;41.572;24.730;2023-09-18T13:55:01;3.38;;;1.75;;
59273;SDS011;45044;41.572;24.730;2023-09-18T13:57:32;2.65;;;1.60;;
59273;SDS011;45044;41.572;24.730;2023-09-18T13:59:59;3.30;;;1.55;;
59273;SDS011;45044;41.572;24.730;2023-09-18T14:02:27;3.92;;;1.88;;
59273;SDS011;45044;41.572;24.730;2023-09-18T14:04:54;2.92;;;1.55;;
59273;SDS011;45044;41.572;24.730;2023-09-18T14:07:21;2.67;;;1.50;;
59273;SDS011;45044;41.572;24.730;2023-09-18T14:09:48;3.75;;;1.83;;
59273;SDS011;45044;41.572;24.730;2023-09-18T14:12:15;4.25;;;1.90;;
59273;SDS011;45044;41.572;24.730;2023-09-18T14:14:42;2.30;;;1.58;;
59273;SDS011;45044;41.572;24.730;2023-09-18T14:17:10;3.10;;;1.52;;
59273;SDS011;45044;41.572;24.730;2023-09-18T14:19:37;2.15;;;1.30;;
59273;SDS011;45044;41.572;24.730;2023-09-18T14:22:05;2.53;;;1.42;;
59273;SDS011;45044;41.572;24.730;2023-09-18T14:24:32;2.55;;;1.33;;
59273;SDS011;45044;41.572;24.730;2023-09-18T14:27:01;3.88;;;1.70;;
59273;SDS011;45044;41.572;24.730;2023-09-18T14:29:31;2.53;;;1.48;;
59273;SDS011;45044;41.572;24.730;2023-09-18T14:31:58;3.17;;;1.60;;
59273;SDS011;45044;41.572;24.730;2023-09-18T14:34:24;2.30;;;1.35;;
59273;SDS011;45044;41.572;24.730;2023-09-18T14:36:51;3.05;;;1.48;;
59273;SDS011;45044;41.572;24.730;2023-09-18T14:39:19;4.43;;;2.17;;
59273;SDS011;45044;41.572;24.730;2023-09-18T14:41:45;3.22;;;1.42;;
59273;SDS011;45044;41.572;24.730;2023-09-18T14:44:14;3.45;;;1.50;;
59273;SDS011;45044;41.572;24.730;2023-09-18T14:46:41;1.63;;;1.33;;